createdAt,value
2022-11-16T00:01:42.895Z,7.50
2022-11-16T00:04:11.861Z,7.50
2022-11-16T00:06:38.980Z,7.50
2022-11-16T00:09:24.064Z,7.40
2022-11-16T00:11:51.854Z,7.40
2022-11-16T00:14:19.513Z,7.40
2022-11-16T00:16:46.264Z,7.40
2022-11-16T00:19:13.153Z,7.40
2022-11-16T00:21:39.969Z,7.40
2022-11-16T00:24:06.776Z,7.40
2022-11-16T00:26:33.421Z,7.40
2022-11-16T00:29:00.552Z,7.50
2022-11-16T00:31:27.331Z,7.40
2022-11-16T00:33:54.011Z,7.40
2022-11-16T00:36:20.716Z,7.40
2022-11-16T00:38:47.449Z,7.40
2022-11-16T00:41:14.153Z,7.40
2022-11-16T00:43:40.945Z,7.40
2022-11-16T00:46:07.818Z,7.40
2022-11-16T00:48:34.828Z,7.30
2022-11-16T00:51:02.069Z,7.30
2022-11-16T00:53:28.859Z,7.30
2022-11-16T00:55:55.549Z,7.20
2022-11-16T00:58:22.384Z,7.20
2022-11-16T01:00:55.685Z,7.20
2022-11-16T01:03:24.257Z,7.10
2022-11-16T01:05:50.980Z,7.10
2022-11-16T01:08:17.612Z,7.10
2022-11-16T01:10:44.286Z,7.10
2022-11-16T01:13:11.545Z,7.10
2022-11-16T01:15:38.214Z,7.00
2022-11-16T01:18:04.903Z,7.00
2022-11-16T01:20:32.019Z,7.00
2022-11-16T01:22:58.739Z,7.00
2022-11-16T01:25:25.561Z,7.00
2022-11-16T01:27:52.243Z,7.00
2022-11-16T01:30:30.397Z,6.90
2022-11-16T01:33:03.869Z,6.90
2022-11-16T01:35:30.576Z,6.90
2022-11-16T01:37:57.324Z,6.90
2022-11-16T01:40:26.832Z,7.00
2022-11-16T01:42:53.704Z,7.00
2022-11-16T01:45:30.055Z,7.00
2022-11-16T01:47:58.110Z,7.00
2022-11-16T01:50:29.657Z,7.00
2022-11-16T01:53:00.891Z,7.10
2022-11-16T01:55:33.551Z,7.00
2022-11-16T01:58:17.117Z,7.10
2022-11-16T02:00:44.747Z,7.00
2022-11-16T02:03:34.459Z,7.00
2022-11-16T02:06:01.205Z,7.00
2022-11-16T02:08:59.205Z,7.00
2022-11-16T02:11:45.338Z,7.00
2022-11-16T02:14:34.614Z,7.00
2022-11-16T02:17:09.645Z,7.00
2022-11-16T02:19:57.519Z,7.00
2022-11-16T02:22:27.213Z,6.90
2022-11-16T02:25:03.859Z,7.00
2022-11-16T02:27:42.519Z,6.90
2022-11-16T02:30:09.491Z,6.90
2022-11-16T02:32:58.560Z,6.80
2022-11-16T02:35:33.783Z,6.80
2022-11-16T02:38:13.426Z,6.80
2022-11-16T02:40:42.873Z,6.80
2022-11-16T02:43:12.092Z,6.70
2022-11-16T02:45:40.554Z,6.70
2022-11-16T02:48:12.985Z,6.70
2022-11-16T02:50:40.946Z,6.70
2022-11-16T02:53:09.058Z,6.60
2022-11-16T02:55:36.203Z,6.60
2022-11-16T02:58:07.214Z,6.60
2022-11-16T03:00:46.004Z,6.60
2022-11-16T03:03:16.553Z,6.50
2022-11-16T03:05:53.704Z,6.50
2022-11-16T03:08:22.719Z,6.50
2022-11-16T03:11:12.272Z,6.50
2022-11-16T03:13:40.802Z,6.40
2022-11-16T03:16:09.831Z,6.40
2022-11-16T03:18:38.621Z,6.40
2022-11-16T03:21:07.026Z,6.40
2022-11-16T03:23:33.744Z,6.40
2022-11-16T03:26:05.208Z,6.30
2022-11-16T03:29:03.093Z,6.30
2022-11-16T03:31:34.544Z,6.30
2022-11-16T03:34:04.587Z,6.30
2022-11-16T03:36:33.971Z,6.30
2022-11-16T03:39:03.090Z,6.30
2022-11-16T03:41:33.055Z,6.30
2022-11-16T03:44:00.152Z,6.20
2022-11-16T03:46:26.945Z,6.20
2022-11-16T03:48:58.426Z,6.20
2022-11-16T03:51:28.148Z,6.20
2022-11-16T03:53:55.157Z,6.20
2022-11-16T03:56:22.223Z,6.10
2022-11-16T03:58:49.208Z,6.10
2022-11-16T04:01:17.577Z,6.10
2022-11-16T04:03:45.828Z,6.10
2022-11-16T04:06:31.431Z,6.00
2022-11-16T04:09:30.539Z,6.00
2022-11-16T04:12:15.637Z,6.00
2022-11-16T04:15:01.379Z,6.00
2022-11-16T04:17:48.952Z,6.00
2022-11-16T04:20:34.470Z,6.00
2022-11-16T04:23:22.605Z,6.00
2022-11-16T04:25:50.151Z,6.00
2022-11-16T04:28:19.857Z,6.00
2022-11-16T04:31:12.288Z,6.00
2022-11-16T04:34:01.366Z,5.90
2022-11-16T04:36:47.443Z,5.90
2022-11-16T04:39:14.410Z,5.90
2022-11-16T04:42:01.336Z,5.90
2022-11-16T04:44:50.406Z,5.90
2022-11-16T04:47:17.640Z,5.90
2022-11-16T04:49:47.058Z,5.90
2022-11-16T04:52:13.734Z,5.80
2022-11-16T04:54:41.511Z,5.80
2022-11-16T04:57:09.329Z,5.80
2022-11-16T04:59:35.978Z,5.80
2022-11-16T05:02:09.600Z,5.80
2022-11-16T05:04:56.630Z,5.80
2022-11-16T05:07:24.680Z,5.80
2022-11-16T05:09:55.392Z,5.80
2022-11-16T05:12:23.432Z,5.70
2022-11-16T05:14:57.995Z,5.70
2022-11-16T05:17:27.572Z,5.70
2022-11-16T05:20:14.925Z,5.60
2022-11-16T05:22:54.758Z,5.60
2022-11-16T05:25:22.851Z,5.60
2022-11-16T05:27:49.707Z,5.60
2022-11-16T05:30:16.529Z,5.50
2022-11-16T05:32:43.663Z,5.50
2022-11-16T05:35:11.248Z,5.50
2022-11-16T05:37:38.499Z,5.50
2022-11-16T05:40:05.562Z,5.40
2022-11-16T05:42:58.551Z,5.40
2022-11-16T05:45:27.920Z,5.30
2022-11-16T05:47:56.255Z,5.30
2022-11-16T05:50:22.963Z,5.30
2022-11-16T05:53:02.792Z,5.20
2022-11-16T05:55:29.573Z,5.20
2022-11-16T05:57:56.305Z,5.20
2022-11-16T06:00:23.130Z,5.20
2022-11-16T06:02:52.594Z,5.20
2022-11-16T06:05:27.384Z,5.20
2022-11-16T06:07:55.309Z,5.20
2022-11-16T06:10:22.870Z,5.10
2022-11-16T06:12:51.780Z,5.10
2022-11-16T06:15:18.706Z,5.00
2022-11-16T06:17:45.472Z,5.00
2022-11-16T06:20:12.378Z,5.00
2022-11-16T06:22:40.033Z,5.00
2022-11-16T06:25:07.589Z,5.00
2022-11-16T06:27:41.132Z,4.90
2022-11-16T06:30:09.637Z,5.00
2022-11-16T06:32:38.108Z,5.00
2022-11-16T06:35:06.412Z,5.00
2022-11-16T06:37:33.666Z,4.90
2022-11-16T06:40:00.394Z,4.90
2022-11-16T06:42:28.109Z,4.90
2022-11-16T06:44:56.173Z,4.90
2022-11-16T06:47:27.798Z,5.00
2022-11-16T06:49:54.540Z,4.90
2022-11-16T06:52:23.415Z,4.90
2022-11-16T06:54:50.829Z,4.90
2022-11-16T06:57:17.992Z,4.90
2022-11-16T06:59:45.250Z,4.90
2022-11-16T07:02:12.905Z,4.90
2022-11-16T07:04:40.817Z,4.90
2022-11-16T07:07:07.701Z,4.90
2022-11-16T07:09:36.221Z,5.00
2022-11-16T07:12:04.094Z,5.00
2022-11-16T07:14:35.395Z,5.00
2022-11-16T07:17:09.330Z,5.00
2022-11-16T07:19:36.967Z,5.00
2022-11-16T07:22:04.525Z,5.00
2022-11-16T07:24:31.997Z,5.00
2022-11-16T07:26:58.877Z,5.00
2022-11-16T07:29:27.599Z,5.00
2022-11-16T07:32:12.729Z,5.10
2022-11-16T07:34:59.555Z,5.10
2022-11-16T07:37:27.587Z,5.20
2022-11-16T07:39:54.636Z,5.20
2022-11-16T07:42:24.366Z,5.20
2022-11-16T07:45:01.880Z,5.20
2022-11-16T07:47:28.698Z,5.20
2022-11-16T07:49:55.889Z,5.20
2022-11-16T07:52:27.091Z,5.20
2022-11-16T07:54:58.809Z,5.20
2022-11-16T07:57:28.373Z,5.20
2022-11-16T07:59:58.713Z,5.20
2022-11-16T08:02:26.997Z,5.20
2022-11-16T08:04:55.063Z,5.20
2022-11-16T08:07:26.267Z,5.30
2022-11-16T08:09:57.216Z,5.30
2022-11-16T08:12:24.804Z,5.30
2022-11-16T08:14:52.912Z,5.30
2022-11-16T08:17:19.997Z,5.40
2022-11-16T08:19:47.521Z,5.30
2022-11-16T08:22:15.873Z,5.40
2022-11-16T08:24:44.385Z,5.40
2022-11-16T08:27:11.396Z,5.40
2022-11-16T08:29:38.161Z,5.40
2022-11-16T08:32:07.928Z,5.50
2022-11-16T08:34:35.333Z,5.50
2022-11-16T08:37:03.789Z,5.60
2022-11-16T08:39:38.651Z,5.60
2022-11-16T08:42:05.673Z,5.60
2022-11-16T08:44:32.454Z,5.70
2022-11-16T08:47:03.043Z,5.70
2022-11-16T08:49:37.649Z,5.70
2022-11-16T08:52:05.328Z,5.70
2022-11-16T08:54:32.766Z,5.80
2022-11-16T08:56:59.740Z,5.80
2022-11-16T08:59:28.602Z,5.90
2022-11-16T09:01:59.784Z,5.90
2022-11-16T09:04:26.630Z,5.90
2022-11-16T09:06:54.883Z,6.00
2022-11-16T09:09:21.612Z,6.00
2022-11-16T09:11:48.799Z,6.00
2022-11-16T09:14:15.492Z,6.00
2022-11-16T09:16:42.198Z,6.00
2022-11-16T09:19:08.859Z,6.00
2022-11-16T09:21:37.523Z,6.00
2022-11-16T09:24:04.296Z,6.00
2022-11-16T09:26:31.036Z,6.10
2022-11-16T09:28:59.048Z,6.10
2022-11-16T09:31:27.485Z,6.20
2022-11-16T09:33:55.236Z,6.20
2022-11-16T09:36:22.011Z,6.20
2022-11-16T09:39:29.023Z,6.30
2022-11-16T09:41:42.711Z,6.40
2022-11-16T09:44:12.645Z,6.60
2022-11-16T09:46:47.100Z,6.70
2022-11-16T09:49:17.537Z,6.70
2022-11-16T09:51:47.135Z,6.80
2022-11-16T09:54:19.070Z,7.00
2022-11-16T09:56:47.557Z,7.20
2022-11-16T09:59:23.305Z,7.40
2022-11-16T10:01:53.085Z,7.60
2022-11-16T10:04:22.497Z,7.80
2022-11-16T10:06:51.848Z,7.90
2022-11-16T10:09:18.681Z,7.90
2022-11-16T10:11:56.442Z,7.90
2022-11-16T10:14:32.718Z,7.90
2022-11-16T10:17:08.674Z,7.80
2022-11-16T10:19:54.218Z,7.80
2022-11-16T10:22:37.907Z,7.80
2022-11-16T10:25:08.906Z,7.70
2022-11-16T10:27:54.147Z,7.70
2022-11-16T10:30:21.997Z,7.70
2022-11-16T10:33:00.388Z,7.70
2022-11-16T10:35:27.093Z,7.70
2022-11-16T10:37:54.309Z,7.70
2022-11-16T10:40:26.114Z,7.70
2022-11-16T10:43:12.333Z,7.60
2022-11-16T10:45:40.437Z,7.50
2022-11-16T10:48:26.186Z,7.50
2022-11-16T10:50:53.113Z,7.40
2022-11-16T10:53:37.306Z,7.40
2022-11-16T10:56:12.993Z,7.30
2022-11-16T10:58:53.922Z,7.40
2022-11-16T11:01:31.505Z,7.40
2022-11-16T11:04:12.182Z,7.30
2022-11-16T11:06:40.124Z,7.30
2022-11-16T11:09:15.728Z,7.30
2022-11-16T11:12:01.214Z,7.30
2022-11-16T11:14:27.892Z,7.30
2022-11-16T11:16:54.618Z,7.30
2022-11-16T11:19:28.532Z,7.30
2022-11-16T11:21:56.090Z,7.30
2022-11-16T11:24:43.981Z,7.30
2022-11-16T11:27:09.670Z,7.30
2022-11-16T11:29:37.905Z,7.20
2022-11-16T11:32:06.335Z,7.30
2022-11-16T11:34:39.263Z,7.30
2022-11-16T11:37:06.713Z,7.30
2022-11-16T11:39:35.079Z,7.30
2022-11-16T11:42:07.091Z,7.40
2022-11-16T11:44:44.533Z,7.40
2022-11-16T11:47:56.639Z,7.50
2022-11-16T11:50:13.373Z,7.50
2022-11-16T11:52:46.136Z,7.40
2022-11-16T11:55:14.920Z,7.50
2022-11-16T11:57:43.225Z,7.50
2022-11-16T12:00:14.054Z,7.50
2022-11-16T12:02:40.867Z,7.50
2022-11-16T12:05:29.019Z,7.50
2022-11-16T12:08:03.038Z,7.50
2022-11-16T12:10:38.563Z,7.50
2022-11-16T12:13:05.229Z,7.50
2022-11-16T12:15:46.048Z,7.40
2022-11-16T12:18:12.970Z,7.30
2022-11-16T12:20:45.740Z,7.30
2022-11-16T12:23:18.129Z,7.30
2022-11-16T12:26:08.462Z,7.20
2022-11-16T12:28:35.141Z,7.30
2022-11-16T12:31:20.386Z,7.30
2022-11-16T12:33:58.502Z,7.20
2022-11-16T12:36:43.798Z,7.20
2022-11-16T12:39:24.640Z,7.20
2022-11-16T12:42:07.155Z,7.10
2022-11-16T12:44:36.622Z,7.10
2022-11-16T12:47:06.168Z,7.00
2022-11-16T12:49:32.849Z,6.90
2022-11-16T12:52:07.240Z,6.90
2022-11-16T12:54:57.933Z,6.90
2022-11-16T12:57:33.314Z,6.90
2022-11-16T13:00:05.997Z,6.80
2022-11-16T13:02:42.685Z,6.80
2022-11-16T13:05:23.252Z,6.80
2022-11-16T13:07:57.410Z,6.90
2022-11-16T13:10:29.425Z,6.90
2022-11-16T13:13:21.855Z,6.80
2022-11-16T13:15:47.880Z,6.80
2022-11-16T13:18:17.162Z,6.80
2022-11-16T13:21:01.573Z,6.80
2022-11-16T13:23:31.691Z,6.80
2022-11-16T13:26:01.843Z,6.80
2022-11-16T13:28:38.264Z,6.80
2022-11-16T13:31:09.326Z,6.80
2022-11-16T13:33:50.957Z,6.80
2022-11-16T13:36:46.121Z,6.80
2022-11-16T13:39:20.311Z,6.90
2022-11-16T13:42:06.473Z,6.90
2022-11-16T13:44:33.533Z,6.90
2022-11-16T13:47:05.745Z,6.90
2022-11-16T13:49:34.124Z,6.90
2022-11-16T13:52:17.180Z,6.90
2022-11-16T13:54:51.645Z,6.90
2022-11-16T13:57:24.681Z,6.90
2022-11-16T14:00:07.797Z,6.90
2022-11-16T14:02:38.504Z,6.90
2022-11-16T14:05:15.925Z,6.90
2022-11-16T14:07:50.606Z,6.90
2022-11-16T14:10:29.457Z,6.90
2022-11-16T14:12:56.708Z,6.90
2022-11-16T14:15:32.727Z,6.90
2022-11-16T14:18:19.671Z,6.90
2022-11-16T14:20:56.019Z,6.90
2022-11-16T14:23:41.534Z,6.90
2022-11-16T14:26:11.073Z,6.90
2022-11-16T14:28:53.155Z,6.80
2022-11-16T14:31:22.893Z,6.80
2022-11-16T14:33:53.138Z,6.80
2022-11-16T14:36:34.521Z,6.80
2022-11-16T14:39:19.935Z,6.80
2022-11-16T14:41:47.076Z,6.70
2022-11-16T14:44:17.460Z,6.70
2022-11-16T14:46:44.571Z,6.70
2022-11-16T14:49:16.190Z,6.70
2022-11-16T14:51:45.140Z,6.70
2022-11-16T14:54:14.823Z,6.70
2022-11-16T14:56:54.942Z,6.70
2022-11-16T14:59:21.574Z,6.70
2022-11-16T15:01:48.243Z,6.60
2022-11-16T15:04:16.200Z,6.70
2022-11-16T15:06:48.730Z,6.70
2022-11-16T15:09:24.362Z,6.60
2022-11-16T15:12:09.743Z,6.70
2022-11-16T15:14:56.228Z,6.60
2022-11-16T15:17:30.152Z,6.60
2022-11-16T15:20:01.240Z,6.60
2022-11-16T15:22:29.324Z,6.60
2022-11-16T15:25:00.463Z,6.60
2022-11-16T15:27:42.893Z,6.60
2022-11-16T15:30:14.757Z,6.50
2022-11-16T15:32:42.689Z,6.50
2022-11-16T15:35:15.419Z,6.50
2022-11-16T15:37:42.078Z,6.50
2022-11-16T15:40:09.433Z,6.50
2022-11-16T15:42:36.936Z,6.50
2022-11-16T15:45:11.572Z,6.50
2022-11-16T15:47:42.326Z,6.50
2022-11-16T15:50:15.952Z,6.50
2022-11-16T15:52:43.782Z,6.50
2022-11-16T15:55:23.639Z,6.50
2022-11-16T15:57:59.198Z,6.40
2022-11-16T16:00:26.634Z,6.40
2022-11-16T16:02:54.655Z,6.50
2022-11-16T16:05:38.162Z,6.50
2022-11-16T16:08:05.715Z,6.50
2022-11-16T16:10:32.462Z,6.50
2022-11-16T16:13:00.139Z,6.50
2022-11-16T16:15:31.089Z,6.40
2022-11-16T16:17:58.686Z,6.50
2022-11-16T16:20:27.430Z,6.50
2022-11-16T16:23:04.678Z,6.40
2022-11-16T16:25:32.296Z,6.50
2022-11-16T16:28:02.590Z,6.50
2022-11-16T16:30:29.868Z,6.50
2022-11-16T16:32:56.964Z,6.50
2022-11-16T16:35:24.749Z,6.50
2022-11-16T16:37:55.987Z,6.50
2022-11-16T16:40:22.910Z,6.50
2022-11-16T16:42:50.838Z,6.50
2022-11-16T16:45:21.776Z,6.50
2022-11-16T16:47:49.335Z,6.50
2022-11-16T16:50:16.507Z,6.50
2022-11-16T16:52:43.181Z,6.50
2022-11-16T16:55:09.964Z,6.50
2022-11-16T16:57:36.862Z,6.40
2022-11-16T17:00:04.144Z,6.40
2022-11-16T17:02:31.011Z,6.40
2022-11-16T17:04:57.671Z,6.50
2022-11-16T17:07:25.062Z,6.50
2022-11-16T17:09:51.939Z,6.50
2022-11-16T17:12:18.775Z,6.50
2022-11-16T17:14:51.371Z,6.50
2022-11-16T17:17:19.295Z,6.50
2022-11-16T17:19:46.512Z,6.50
2022-11-16T17:22:13.965Z,6.50
2022-11-16T17:24:40.675Z,6.50
2022-11-16T17:27:07.351Z,6.50
2022-11-16T17:29:34.096Z,6.50
2022-11-16T17:32:00.929Z,6.50
2022-11-16T17:34:27.607Z,6.50
2022-11-16T17:36:55.808Z,6.50
2022-11-16T17:39:23.548Z,6.60
2022-11-16T17:41:50.388Z,6.60
2022-11-16T17:44:21.672Z,6.50
2022-11-16T17:46:48.980Z,6.50
2022-11-16T17:49:15.657Z,6.50
2022-11-16T17:51:42.599Z,6.50
2022-11-16T17:54:09.361Z,6.50
2022-11-16T17:56:36.086Z,6.50
2022-11-16T17:59:02.762Z,6.50
2022-11-16T18:01:29.825Z,6.50
2022-11-16T18:03:56.764Z,6.50
2022-11-16T18:06:25.040Z,6.50
2022-11-16T18:08:51.958Z,6.50
2022-11-16T18:11:23.047Z,6.50
2022-11-16T18:13:56.831Z,6.40
2022-11-16T18:16:24.483Z,6.40
2022-11-16T18:18:56.008Z,6.40
2022-11-16T18:21:22.680Z,6.40
2022-11-16T18:23:49.444Z,6.30
2022-11-16T18:26:18.654Z,6.30
2022-11-16T18:28:45.540Z,6.30
2022-11-16T18:31:13.297Z,6.30
2022-11-16T18:33:39.991Z,6.30
2022-11-16T18:36:07.423Z,6.30
2022-11-16T18:38:34.555Z,6.30
2022-11-16T18:41:04.549Z,6.30
2022-11-16T18:43:31.521Z,6.30
2022-11-16T18:45:58.330Z,6.30
2022-11-16T18:48:25.075Z,6.40
2022-11-16T18:50:51.741Z,6.30
2022-11-16T18:53:18.394Z,6.30
2022-11-16T18:55:53.592Z,6.30
2022-11-16T18:58:49.298Z,6.20
2022-11-16T19:01:11.730Z,6.30
2022-11-16T19:03:38.617Z,6.30
2022-11-16T19:06:09.997Z,6.30
2022-11-16T19:08:37.861Z,6.30
2022-11-16T19:11:05.813Z,6.30
2022-11-16T19:13:33.056Z,6.30
2022-11-16T19:16:00.277Z,6.30
2022-11-16T19:18:28.925Z,6.30
2022-11-16T19:21:02.351Z,6.30
2022-11-16T19:23:29.012Z,6.30
2022-11-16T19:26:04.877Z,6.20
2022-11-16T19:28:34.834Z,6.30
2022-11-16T19:31:05.868Z,6.20
2022-11-16T19:33:32.863Z,6.20
2022-11-16T19:36:05.070Z,6.20
2022-11-16T19:38:31.733Z,6.20
2022-11-16T19:40:58.483Z,6.20
2022-11-16T19:43:25.136Z,6.20
2022-11-16T19:45:51.954Z,6.20
2022-11-16T19:48:18.624Z,6.10
2022-11-16T19:50:45.361Z,6.10
2022-11-16T19:53:12.179Z,6.10
2022-11-16T19:55:39.411Z,6.10
2022-11-16T19:58:06.610Z,6.10
2022-11-16T20:00:33.299Z,6.00
2022-11-16T20:03:00.107Z,6.00
2022-11-16T20:05:27.839Z,6.00
2022-11-16T20:07:54.561Z,5.90
2022-11-16T20:10:21.280Z,5.90
2022-11-16T20:12:49.712Z,5.90
2022-11-16T20:15:16.404Z,5.90
2022-11-16T20:17:43.071Z,5.90
2022-11-16T20:20:10.018Z,5.90
2022-11-16T20:22:36.709Z,5.80
2022-11-16T20:25:03.420Z,5.80
2022-11-16T20:27:30.246Z,5.80
2022-11-16T20:29:56.966Z,5.80
2022-11-16T20:32:25.047Z,5.90
2022-11-16T20:34:51.777Z,5.80
2022-11-16T20:37:18.536Z,5.80
2022-11-16T20:39:47.027Z,5.80
2022-11-16T20:42:13.708Z,5.80
2022-11-16T20:44:40.449Z,5.80
2022-11-16T20:47:07.183Z,5.80
2022-11-16T20:49:34.013Z,5.80
2022-11-16T20:52:00.904Z,5.80
2022-11-16T20:54:27.908Z,5.70
2022-11-16T20:56:54.621Z,5.70
2022-11-16T20:59:21.281Z,5.70
2022-11-16T21:01:52.301Z,5.70
2022-11-16T21:04:20.542Z,5.80
2022-11-16T21:06:47.296Z,5.70
2022-11-16T21:09:15.656Z,5.70
2022-11-16T21:12:08.396Z,5.60
2022-11-16T21:14:35.379Z,5.60
2022-11-16T21:17:02.207Z,5.60
2022-11-16T21:19:29.006Z,5.60
2022-11-16T21:21:55.721Z,5.50
2022-11-16T21:24:24.858Z,5.50
2022-11-16T21:26:52.470Z,5.50
2022-11-16T21:29:25.748Z,5.50
2022-11-16T21:31:52.596Z,5.50
2022-11-16T21:34:20.467Z,5.50
2022-11-16T21:36:47.664Z,5.50
2022-11-16T21:39:14.372Z,5.50
2022-11-16T21:41:41.485Z,5.50
2022-11-16T21:44:08.231Z,5.50
2022-11-16T21:46:35.037Z,5.50
2022-11-16T21:49:01.781Z,5.50
2022-11-16T21:51:28.592Z,5.50
2022-11-16T21:53:55.606Z,5.50
2022-11-16T21:56:23.561Z,5.50
2022-11-16T21:58:52.667Z,5.50
2022-11-16T22:01:19.951Z,5.50
2022-11-16T22:03:46.813Z,5.40
2022-11-16T22:06:33.168Z,5.40
2022-11-16T22:08:59.983Z,5.40
2022-11-16T22:11:26.882Z,5.40
2022-11-16T22:13:53.631Z,5.40
2022-11-16T22:16:23.154Z,5.40
2022-11-16T22:18:50.181Z,5.40
2022-11-16T22:21:16.975Z,5.30
2022-11-16T22:23:43.749Z,5.40
2022-11-16T22:26:11.531Z,5.30
2022-11-16T22:28:39.033Z,5.30
2022-11-16T22:31:13.162Z,5.30
2022-11-16T22:33:40.161Z,5.30
2022-11-16T22:36:09.285Z,5.30
2022-11-16T22:38:36.315Z,5.30
2022-11-16T22:41:03.483Z,5.20
2022-11-16T22:43:30.452Z,5.30
2022-11-16T22:45:58.166Z,5.20
2022-11-16T22:48:28.627Z,5.30
2022-11-16T22:51:01.434Z,5.20
2022-11-16T22:53:28.250Z,5.20
2022-11-16T22:55:55.047Z,5.20
2022-11-16T22:58:21.797Z,5.20
2022-11-16T23:00:48.522Z,5.10
2022-11-16T23:03:15.307Z,5.20
2022-11-16T23:05:42.076Z,5.20
2022-11-16T23:08:08.725Z,5.20
2022-11-16T23:10:55.388Z,5.20
2022-11-16T23:13:40.923Z,5.20
2022-11-16T23:16:07.973Z,5.20
2022-11-16T23:18:34.981Z,5.10
2022-11-16T23:21:20.473Z,5.10
2022-11-16T23:24:06.084Z,5.10
2022-11-16T23:26:51.519Z,5.10
2022-11-16T23:29:18.241Z,5.10
2022-11-16T23:31:45.314Z,5.10
2022-11-16T23:34:12.001Z,5.10
2022-11-16T23:36:38.644Z,5.10
2022-11-16T23:39:05.355Z,5.10
2022-11-16T23:41:50.692Z,5.10
2022-11-16T23:44:17.366Z,5.00
2022-11-16T23:46:44.077Z,5.00
2022-11-16T23:49:10.825Z,5.00
2022-11-16T23:51:37.498Z,5.00
2022-11-16T23:54:04.879Z,5.00
2022-11-16T23:56:31.818Z,5.00
2022-11-16T23:58:58.575Z,5.00
